Time;durP1;ratioP1;P1;durP2;ratioP2;P2;SDS_P1;SDS_P2;PMS_P1;PMS_P2;Temp;Humidity;BMP_temperature;BMP_pressure;BME280_temperature;BME280_humidity;BME280_pressure;Samples;Min_cycle;Max_cycle;Signal;HPM_P1;HPM_P2
2023/01/29 00:01:27;;;;;;;64.10;28.58;;;;;;;2.04;100.00;102029.88;4951150;28;20034;-75
2023/01/29 00:03:52;;;;;;;75.05;28.08;;;;;;;2.08;100.00;102027.91;4951519;28;20073;-75
2023/01/29 00:06:17;;;;;;;71.33;29.83;;;;;;;2.13;100.00;102035.59;4968570;28;20030;-75
2023/01/29 00:08:43;;;;;;;76.38;28.13;;;;;;;2.09;100.00;102030.50;4943203;28;20301;-75
2023/01/29 00:11:09;;;;;;;70.87;26.77;;;;;;;2.11;100.00;102031.28;4951504;28;20041;-75
2023/01/29 00:13:35;;;;;;;66.03;29.02;;;;;;;2.16;100.00;102025.78;4968797;28;20034;-75
2023/01/29 00:16:00;;;;;;;68.43;29.88;;;;;;;2.12;100.00;102016.31;4950997;28;20524;-75
2023/01/29 00:18:27;;;;;;;85.93;30.98;;;;;;;2.17;100.00;102023.97;4935258;28;20030;-75
2023/01/29 00:20:53;;;;;;;73.32;26.70;;;;;;;2.21;100.00;102022.91;4951020;28;20035;-75
2023/01/29 00:23:19;;;;;;;67.88;25.95;;;;;;;2.10;100.00;102011.09;4935312;28;20019;-75
2023/01/29 00:25:44;;;;;;;67.63;27.75;;;;;;;2.22;100.00;102029.88;4968397;28;20074;-74
2023/01/29 00:28:10;;;;;;;66.68;25.90;;;;;;;2.15;100.00;102012.66;4967940;28;20034;-74
2023/01/29 00:30:36;;;;;;;68.65;28.33;;;;;;;2.22;100.00;102021.97;4934465;28;20058;-75
2023/01/29 00:33:03;;;;;;;65.00;27.10;;;;;;;2.26;100.00;102010.34;4934634;28;20523;-75
2023/01/29 00:35:29;;;;;;;62.55;27.23;;;;;;;2.24;100.00;102022.75;4937393;28;20103;-75
2023/01/29 00:37:55;;;;;;;62.10;28.00;;;;;;;2.17;100.00;102010.81;4968050;28;20050;-74
2023/01/29 00:40:22;;;;;;;71.70;28.52;;;;;;;2.19;100.00;102004.53;4950582;28;20400;-75
2023/01/29 00:45:32;;;;;;;62.80;26.67;;;;;;;2.26;100.00;102012.97;4954992;28;20097;-76
2023/01/29 00:47:58;;;;;;;65.13;27.30;;;;;;;2.20;100.00;102013.28;4933886;28;20306;-76
2023/01/29 00:50:23;;;;;;;59.53;24.83;;;;;;;2.28;100.00;102005.84;4949663;28;20519;-76
2023/01/29 00:52:50;;;;;;;52.33;24.70;;;;;;;2.28;100.00;102001.44;4956253;28;20035;-76
2023/01/29 00:55:16;;;;;;;56.70;24.85;;;;;;;2.27;100.00;101997.09;4949685;28;20045;-76
2023/01/29 00:57:42;;;;;;;54.30;25.05;;;;;;;2.22;100.00;101977.16;4949637;28;20035;-77
2023/01/29 01:00:11;;;;;;;46.58;20.98;;;;;;;2.27;100.00;101980.41;4966959;28;20062;-77
2023/01/29 01:05:20;;;;;;;42.40;20.65;;;;;;;2.30;100.00;101982.91;4952377;28;20117;-76
2023/01/29 01:07:48;;;;;;;51.95;21.50;;;;;;;2.21;100.00;101980.75;4940350;28;20738;-77
2023/01/29 01:10:21;;;;;;;45.25;21.95;;;;;;;2.20;100.00;101969.38;4964481;28;20388;-77
2023/01/29 01:12:54;;;;;;;55.85;20.30;;;;;;;2.20;100.00;101971.13;4949535;28;20033;-77
2023/01/29 01:15:20;;;;;;;45.42;20.83;;;;;;;2.22;100.00;101979.81;4963344;28;20031;-77
2023/01/29 01:17:47;;;;;;;58.58;22.92;;;;;;;2.19;100.00;101979.97;4949371;28;20113;-77
2023/01/29 01:20:14;;;;;;;39.33;18.85;;;;;;;2.25;100.00;101987.56;4949372;28;20048;-77
2023/01/29 01:22:39;;;;;;;50.20;21.45;;;;;;;2.23;100.00;101984.16;4966327;28;20034;-77
2023/01/29 01:25:05;;;;;;;42.75;19.10;;;;;;;2.30;100.00;101990.81;4932466;28;20077;-77
2023/01/29 01:27:30;;;;;;;46.80;21.38;;;;;;;2.31;100.00;101992.50;4948631;28;20064;-77
2023/01/29 01:29:56;;;;;;;49.38;21.27;;;;;;;2.26;100.00;101989.25;4932606;28;20046;-77
2023/01/29 01:32:22;;;;;;;46.28;20.42;;;;;;;2.30;100.00;101981.13;4948238;28;20042;-77
2023/01/29 01:34:47;;;;;;;55.23;22.87;;;;;;;2.27;100.00;101977.78;4948508;28;20097;-77
2023/01/29 01:37:13;;;;;;;54.77;23.10;;;;;;;2.27;100.00;101964.59;4965509;28;20266;-77
2023/01/29 01:39:39;;;;;;;50.58;22.48;;;;;;;2.30;100.00;101973.22;4932953;28;20585;-77
2023/01/29 01:42:11;;;;;;;54.50;23.47;;;;;;;2.30;100.00;101967.94;4965719;28;20059;-77
2023/01/29 01:44:53;;;;;;;54.20;22.20;;;;;;;2.33;100.00;101959.88;4940083;28;20325;-77
2023/01/29 01:47:28;;;;;;;56.28;23.75;;;;;;;2.29;100.00;101950.44;4946300;28;20389;-77
2023/01/29 01:49:55;;;;;;;50.80;22.88;;;;;;;2.29;100.00;101944.28;4948106;28;20034;-77
2023/01/29 01:52:21;;;;;;;51.50;22.80;;;;;;;2.31;100.00;101934.53;4932603;28;20030;-76
2023/01/29 01:54:48;;;;;;;50.78;23.88;;;;;;;2.30;100.00;101924.94;4966095;28;20480;-77
2023/01/29 01:57:23;;;;;;;49.05;20.92;;;;;;;2.35;100.00;101925.53;4948605;28;20034;-77
2023/01/29 01:59:56;;;;;;;55.88;23.27;;;;;;;2.28;100.00;101929.44;4954924;28;20385;-77
2023/01/29 02:10:45;;;;;;;55.30;23.23;;;;;;;2.38;100.00;101928.00;4945579;28;20533;-77
2023/01/29 02:13:11;;;;;;;58.20;24.15;;;;;;;2.40;100.00;101928.78;4965879;28;20408;-77
2023/01/29 02:15:40;;;;;;;62.63;24.73;;;;;;;2.38;100.00;101927.16;4965687;28;20027;-77
2023/01/29 02:18:07;;;;;;;64.88;25.75;;;;;;;2.41;100.00;101919.09;4948505;28;20373;-77
2023/01/29 02:20:35;;;;;;;70.47;26.05;;;;;;;2.45;100.00;101916.19;4947809;28;20435;-77
2023/01/29 02:23:01;;;;;;;;;;;;;;;2.45;100.00;101921.47;4949130;28;20490;-76
2023/01/29 02:25:45;;;;;;;64.35;22.85;;;;;;;2.41;100.00;101906.78;4947780;28;20382;-77
2023/01/29 02:28:23;;;;;;;60.30;26.15;;;;;;;2.41;100.00;101914.69;4948215;28;20069;-76
2023/01/29 02:31:03;;;;;;;67.32;25.95;;;;;;;2.42;100.00;101897.94;4948158;28;20050;-77
2023/01/29 02:33:33;;;;;;;71.20;28.38;;;;;;;2.37;100.00;101894.69;4965314;28;20027;-77
2023/01/29 02:36:10;;;;;;;65.65;27.08;;;;;;;2.42;100.00;101892.66;4945205;28;20388;-76
2023/01/29 02:38:54;;;;;;;75.90;30.33;;;;;;;2.45;100.00;101884.56;4948174;28;20133;-76
2023/01/29 02:41:27;;;;;;;87.10;30.38;;;;;;;2.48;100.00;101881.78;4929946;28;20999;-77
2023/01/29 02:44:11;;;;;;;78.47;29.92;;;;;;;2.49;100.00;101880.84;4948421;28;20122;-77
2023/01/29 02:46:42;;;;;;;73.50;29.20;;;;;;;2.46;100.00;101869.63;4929136;28;20568;-76
2023/01/29 02:49:22;;;;;;;91.97;29.27;;;;;;;2.46;100.00;101870.47;4933536;28;20522;-76
2023/01/29 02:51:56;;;;;;;84.55;31.55;;;;;;;2.46;100.00;101869.63;4958027;28;20070;-77
2023/01/29 02:54:30;;;;;;;90.28;30.40;;;;;;;2.45;100.00;101860.84;4951335;28;20039;-77
2023/01/29 02:57:03;;;;;;;70.03;28.27;;;;;;;2.53;100.00;101863.09;4949086;28;20066;-77
2023/01/29 02:59:41;;;;;;;78.45;30.48;;;;;;;2.53;100.00;101861.31;4951055;28;20403;-77
2023/01/29 03:02:15;;;;;;;69.85;29.00;;;;;;;2.53;100.00;101849.91;4934923;28;20062;-77
2023/01/29 03:04:46;;;;;;;76.30;29.02;;;;;;;2.59;100.00;101851.34;4931168;28;20039;-77
2023/01/29 03:07:45;;;;;;;70.82;28.33;;;;;;;2.58;100.00;101850.50;4950959;28;20463;-77
2023/01/29 03:10:25;;;;;;;75.55;29.55;;;;;;;2.58;100.00;101833.84;4950999;28;20038;-77
2023/01/29 03:13:03;;;;;;;59.97;25.10;;;;;;;2.59;100.00;101823.19;4935011;28;20066;-76
2023/01/29 03:15:38;;;;;;;56.35;23.52;;;;;;;2.64;100.00;101836.13;4934404;28;20041;-76
2023/01/29 03:18:44;;;;;;;42.10;18.10;;;;;;;2.59;100.00;101828.47;4950403;28;20522;-76
2023/01/29 03:32:39;;;;;;;42.33;19.77;;;;;;;2.70;100.00;101830.53;4968677;28;20492;-77
2023/01/29 03:35:08;;;;;;;46.92;19.95;;;;;;;2.68;100.00;101827.97;4950240;28;20031;-76
2023/01/29 03:37:47;;;;;;;51.05;21.77;;;;;;;2.72;100.00;101828.66;4948931;28;20054;-76
2023/01/29 03:40:13;;;;;;;55.83;20.75;;;;;;;2.64;100.00;101830.84;4935008;28;20040;-76
2023/01/29 03:42:49;;;;;;;41.22;19.77;;;;;;;2.69;100.00;101829.69;4950844;28;20054;-76
2023/01/29 03:45:30;;;;;;;43.20;19.00;;;;;;;2.75;100.00;101831.09;4950723;28;20128;-76
2023/01/29 03:48:24;;;;;;;38.55;16.92;;;;;;;2.66;100.00;101821.91;4968146;28;20082;-77
2023/01/29 03:51:20;;;;;;;45.78;17.17;;;;;;;2.76;100.00;101830.16;4947117;28;20094;-76
2023/01/29 03:53:52;;;;;;;41.83;18.40;;;;;;;2.75;100.00;101831.09;4941259;28;20050;-76
2023/01/29 03:56:24;;;;;;;45.40;20.27;;;;;;;2.75;100.00;101826.69;4963991;28;20093;-76
2023/01/29 03:59:21;;;;;;;39.22;18.40;;;;;;;2.69;100.00;101816.50;4950379;28;20046;-76
2023/01/29 04:02:26;;;;;;;34.92;16.73;;;;;;;2.70;100.00;101819.97;4915370;28;20566;-76
2023/01/29 04:05:00;;;;;;;35.22;15.50;;;;;;;2.75;100.00;101839.03;4933279;28;20081;-76
2023/01/29 04:07:32;;;;;;;40.25;15.68;;;;;;;2.75;100.00;101828.47;4934505;28;20069;-75
2023/01/29 04:10:15;;;;;;;39.35;17.73;;;;;;;2.74;100.00;101826.78;4950432;28;20037;-76
2023/01/29 04:12:47;;;;;;;37.38;16.23;;;;;;;2.66;100.00;101814.00;4949376;28;20055;-76
2023/01/29 04:15:14;;;;;;;35.05;16.75;;;;;;;2.66;100.00;101827.19;4949314;28;20061;-76
2023/01/29 04:17:44;;;;;;;33.58;14.43;;;;;;;2.75;100.00;101825.84;4934471;28;20050;-76
2023/01/29 04:20:32;;;;;;;36.08;15.75;;;;;;;2.74;100.00;101837.34;4937006;28;20038;-76
2023/01/29 04:22:57;;;;;;;31.90;15.20;;;;;;;2.75;100.00;101825.84;4950242;28;20034;-75
2023/01/29 04:25:28;;;;;;;35.70;14.57;;;;;;;2.72;100.00;101826.03;4950332;28;20503;-76
2023/01/29 04:28:12;;;;;;;32.72;15.50;;;;;;;2.73;100.00;101825.06;4958162;28;20023;-76
2023/01/29 04:30:44;;;;;;;40.15;16.50;;;;;;;2.73;100.00;101825.06;4941818;28;20139;-76
2023/01/29 04:33:32;;;;;;;35.83;15.80;;;;;;;2.72;100.00;101826.03;4949771;28;20039;-76
2023/01/29 04:36:30;;;;;;;33.25;15.98;;;;;;;2.75;100.00;101817.94;4949912;28;20030;-76
2023/01/29 04:39:19;;;;;;;39.28;19.05;;;;;;;2.72;100.00;101818.09;4882131;28;20047;-76
2023/01/29 04:41:53;;;;;;;29.55;15.35;;;;;;;2.81;100.00;101825.50;4965087;28;20038;-75
2023/01/29 04:44:35;;;;;;;31.95;16.17;;;;;;;2.79;100.00;101814.19;4949598;28;20035;-75
2023/01/29 04:47:14;;;;;;;31.55;15.40;;;;;;;2.73;100.00;101809.25;4965957;28;20033;-75
2023/01/29 04:49:50;;;;;;;37.33;16.70;;;;;;;2.73;100.00;101793.41;4930354;28;20038;-75
2023/01/29 04:52:30;;;;;;;38.60;17.63;;;;;;;2.77;100.00;101789.69;4947736;28;20169;-76
2023/01/29 04:55:06;;;;;;;43.22;17.50;;;;;;;2.84;100.00;101800.75;4947777;28;20476;-76
2023/01/29 04:57:42;;;;;;;;;;;;;;;2.86;100.00;101809.44;4934631;28;20122;-76
2023/01/29 05:00:15;;;;;;;41.92;18.80;;;;;;;2.75;100.00;101796.81;4951122;28;19914;-76
2023/01/29 05:02:43;;;;;;;51.60;19.27;;;;;;;2.67;100.00;101783.22;4941426;28;20452;-76
2023/01/29 05:05:11;;;;;;;44.95;19.33;;;;;;;2.71;100.00;101795.28;4965909;28;20030;-76
2023/01/29 05:07:39;;;;;;;43.83;18.27;;;;;;;2.80;100.00;101788.66;4964844;28;20472;-75
2023/01/29 05:10:07;;;;;;;48.65;19.27;;;;;;;2.77;100.00;101788.84;4949429;28;20057;-75
2023/01/29 05:12:34;;;;;;;47.67;20.77;;;;;;;2.74;100.00;101795.97;4949226;28;20034;-75
2023/01/29 05:15:01;;;;;;;44.25;18.25;;;;;;;2.77;100.00;101775.66;4933122;28;20030;-75
2023/01/29 05:17:27;;;;;;;45.92;18.55;;;;;;;2.80;100.00;101773.69;4933574;28;20030;-75
2023/01/29 05:19:54;;;;;;;43.15;19.05;;;;;;;2.78;100.00;101766.78;4966730;28;20037;-75
2023/01/29 05:22:22;;;;;;;37.33;17.02;;;;;;;2.86;100.00;101777.78;4949115;28;20050;-75
2023/01/29 05:24:48;;;;;;;37.83;17.52;;;;;;;2.89;100.00;101783.69;4965930;28;20030;-75
2023/01/29 05:30:10;;;;;;;36.22;17.00;;;;;;;2.86;100.00;101772.50;4966057;28;20035;-75
2023/01/29 05:32:35;;;;;;;37.05;15.82;;;;;;;2.87;100.00;101764.47;4928109;28;20492;-75
2023/01/29 05:35:01;;;;;;;32.55;15.50;;;;;;;2.86;100.00;101778.63;4965997;28;20518;-75
2023/01/29 05:37:26;;;;;;;30.93;14.40;;;;;;;2.91;100.00;101776.56;4933325;28;20034;-75
2023/01/29 05:39:51;;;;;;;28.30;14.10;;;;;;;2.90;100.00;101777.50;4955727;28;20728;-75
2023/01/29 05:42:16;;;;;;;26.30;13.73;;;;;;;2.87;100.00;101763.63;4933142;28;20049;-75
2023/01/29 05:44:42;;;;;;;36.13;15.63;;;;;;;2.89;100.00;101764.41;4953723;28;20041;-76
2023/01/29 05:47:07;;;;;;;31.40;15.70;;;;;;;2.89;100.00;101748.56;4966433;28;20035;-76
2023/01/29 05:49:32;;;;;;;35.73;14.40;;;;;;;2.90;100.00;101748.50;4948930;28;20046;-76
2023/01/29 05:51:58;;;;;;;31.97;14.87;;;;;;;2.86;100.00;101751.41;4932986;28;20030;-76
2023/01/29 05:54:23;;;;;;;32.23;15.30;;;;;;;2.84;100.00;101740.91;4949826;28;20098;-77
2023/01/29 05:56:48;;;;;;;29.47;14.53;;;;;;;2.93;100.00;101745.66;4935289;28;20031;-76
2023/01/29 05:59:15;;;;;;;27.23;14.30;;;;;;;2.86;100.00;101740.84;4967161;28;20538;-77
2023/01/29 06:01:40;;;;;;;;;;;;;;;2.88;100.00;101739.81;4954163;28;20591;-75
2023/01/29 06:04:05;;;;;;;33.75;13.80;;;;;;;2.92;100.00;101743.94;4950347;28;19922;-74
2023/01/29 06:06:31;;;;;;;28.80;13.73;;;;;;;2.88;100.00;101717.84;4949671;28;20503;-76
2023/01/29 06:08:56;;;;;;;44.43;15.53;;;;;;;2.92;100.00;101725.47;4946167;28;20061;-76
2023/01/29 06:11:22;;;;;;;28.85;13.80;;;;;;;2.88;100.00;101718.72;4934283;28;20333;-75
2023/01/29 06:13:47;;;;;;;29.17;13.83;;;;;;;2.98;100.00;101708.47;4950925;28;20047;-76
2023/01/29 06:16:13;;;;;;;29.95;13.20;;;;;;;3.00;100.00;101703.09;4950586;28;20282;-76
2023/01/29 06:18:39;;;;;;;24.25;10.68;;;;;;;2.94;100.00;101697.22;4934636;28;20035;-76
2023/01/29 06:21:06;;;;;;;;;;;;;;;2.96;100.00;101689.25;4967936;28;20031;-76
2023/01/29 06:23:32;;;;;;;23.13;10.43;;;;;;;2.95;100.00;101698.94;4967948;28;19922;-76
2023/01/29 06:26:02;;;;;;;17.63;9.00;;;;;;;2.86;100.00;101691.56;4934323;28;20085;-75
2023/01/29 06:28:27;;;;;;;14.32;8.38;;;;;;;2.90;100.00;101702.78;4953639;28;20043;-76
2023/01/29 06:30:56;;;;;;;18.63;8.18;;;;;;;2.88;100.00;101708.16;4970710;28;20031;-76
2023/01/29 06:33:21;;;;;;;20.33;7.82;;;;;;;2.79;100.00;101703.41;4953613;28;20038;-76
2023/01/29 06:35:46;;;;;;;16.40;8.20;;;;;;;2.82;100.00;101705.88;4953286;28;20018;-76
2023/01/29 06:38:12;;;;;;;14.20;8.20;;;;;;;2.71;100.00;101689.81;4953779;28;20027;-77
2023/01/29 06:40:37;;;;;;;14.77;8.33;;;;;;;2.75;100.00;101686.06;4952819;28;20356;-77
2023/01/29 06:43:03;;;;;;;14.70;7.93;;;;;;;2.67;100.00;101680.38;4937781;28;20066;-77
2023/01/29 06:45:28;;;;;;;15.77;8.45;;;;;;;2.71;100.00;101671.34;4969656;28;20046;-77
2023/01/29 06:47:59;;;;;;;18.23;10.97;;;;;;;2.67;100.00;101677.72;4970863;28;20110;-77
2023/01/29 06:50:25;;;;;;;20.17;9.98;;;;;;;2.64;100.00;101681.41;4985048;23;20046;-83
2023/01/29 06:52:50;;;;;;;17.02;9.23;;;;;;;2.60;100.00;101679.91;4969221;28;20039;-81
2023/01/29 06:55:15;;;;;;;20.27;11.03;;;;;;;2.63;100.00;101686.78;4936072;29;20074;-82
2023/01/29 06:57:41;;;;;;;20.35;11.48;;;;;;;2.60;100.00;101668.47;4946789;28;20028;-83
2023/01/29 07:00:08;;;;;;;23.03;12.53;;;;;;;2.60;100.00;101669.34;4921597;29;20041;-84
2023/01/29 07:02:33;;;;;;;21.45;13.20;;;;;;;2.51;100.00;101656.69;4931049;28;20087;-83
2023/01/29 07:04:58;;;;;;;21.77;12.97;;;;;;;2.53;100.00;101662.75;4921390;29;20062;-84
2023/01/29 07:07:24;;;;;;;31.47;14.83;;;;;;;2.55;100.00;101663.47;4937157;29;20364;-83
2023/01/29 07:09:49;;;;;;;37.23;16.07;;;;;;;2.57;100.00;101668.66;4936828;28;20126;-80
2023/01/29 07:12:14;;;;;;;37.10;16.90;;;;;;;2.59;100.00;101669.44;4936082;29;20374;-83
2023/01/29 07:14:40;;;;;;;50.70;18.77;;;;;;;2.53;100.00;101665.38;4928059;28;20035;-83
2023/01/29 07:17:05;;;;;;;42.50;18.30;;;;;;;2.50;100.00;101663.72;4937999;29;20078;-89
2023/01/29 07:19:31;;;;;;;43.42;19.00;;;;;;;2.47;100.00;101666.56;4922462;29;20558;-84
2023/01/29 07:21:56;;;;;;;34.30;16.63;;;;;;;2.61;100.00;101683.38;4946008;29;20039;-85
2023/01/29 07:24:21;;;;;;;33.60;18.38;;;;;;;2.52;100.00;101680.31;4937795;29;20035;-84
2023/01/29 07:26:47;;;;;;;47.10;20.80;;;;;;;2.43;100.00;101675.56;4971737;28;20062;-84
2023/01/29 07:29:12;;;;;;;39.00;19.17;;;;;;;2.48;100.00;101677.94;4937822;28;20027;-84
2023/01/29 07:31:39;;;;;;;44.97;20.05;;;;;;;2.45;100.00;101672.84;4939950;28;20089;-85
2023/01/29 07:34:05;;;;;;;42.40;20.13;;;;;;;2.43;100.00;101667.66;4935725;28;20527;-87
2023/01/29 07:36:30;;;;;;;40.88;19.67;;;;;;;2.39;100.00;101657.38;4943551;28;20063;-86
2023/01/29 07:38:56;;;;;;;37.73;19.23;;;;;;;2.37;100.00;101660.13;4933022;29;20133;-85
2023/01/29 07:41:21;;;;;;;43.43;18.40;;;;;;;2.41;100.00;101666.94;4922196;29;20113;-86
2023/01/29 07:43:47;;;;;;;44.10;21.37;;;;;;;2.37;100.00;101661.91;4943514;28;20286;-85
2023/01/29 07:46:12;;;;;;;38.45;20.05;;;;;;;2.40;100.00;101659.94;4922678;29;20031;-85
2023/01/29 07:48:38;;;;;;;41.20;18.83;;;;;;;2.37;100.00;101654.84;4944648;28;20031;-84
2023/01/29 07:51:03;;;;;;;48.53;21.20;;;;;;;2.37;100.00;101656.63;4926519;29;20050;-84
2023/01/29 07:53:29;;;;;;;44.35;20.50;;;;;;;2.40;100.00;101654.66;4922050;29;20035;-85
2023/01/29 07:55:54;;;;;;;40.17;19.98;;;;;;;2.42;100.00;101654.59;4932415;28;20860;-84
2023/01/29 07:58:20;;;;;;;40.07;19.23;;;;;;;2.43;100.00;101651.84;4938532;29;20110;-86
2023/01/29 08:00:45;;;;;;;48.90;22.03;;;;;;;2.48;100.00;101656.84;4937626;28;20278;-84
2023/01/29 08:03:14;;;;;;;43.77;20.80;;;;;;;2.41;100.00;101645.84;4959060;28;20488;-85
2023/01/29 08:05:41;;;;;;;43.67;20.23;;;;;;;2.49;100.00;101648.03;4929764;28;20282;-84
2023/01/29 08:08:06;;;;;;;37.90;19.52;;;;;;;2.54;100.00;101657.34;4930306;29;20439;-84
2023/01/29 08:10:32;;;;;;;42.00;18.65;;;;;;;2.48;100.00;101652.47;4924106;28;20031;-87
2023/01/29 08:13:00;;;;;;;36.13;17.80;;;;;;;2.50;100.00;101650.56;4921768;29;20114;-84
2023/01/29 08:15:26;;;;;;;37.42;17.70;;;;;;;2.53;100.00;101633.75;4922270;29;20047;-88
2023/01/29 08:17:52;;;;;;;;;;;;;;;2.45;100.00;101618.34;4950510;28;20035;-84
2023/01/29 08:20:18;;;;;;;37.72;19.40;;;;;;;2.39;100.00;101631.91;4936578;29;20005;-83
2023/01/29 08:22:44;;;;;;;38.58;19.17;;;;;;;2.45;100.00;101625.41;4932306;28;20027;-84
2023/01/29 08:25:13;;;;;;;34.88;19.52;;;;;;;2.43;100.00;101632.56;4926273;29;20054;-84
2023/01/29 08:27:39;;;;;;;39.25;17.75;;;;;;;2.47;100.00;101637.56;4918722;28;20062;-84
2023/01/29 08:30:05;;;;;;;36.00;17.10;;;;;;;2.51;100.00;101646.16;4951418;28;20500;-83
2023/01/29 08:32:31;;;;;;;34.63;16.63;;;;;;;2.53;100.00;101639.84;4933429;29;20564;-80
2023/01/29 08:34:58;;;;;;;29.83;16.23;;;;;;;2.50;100.00;101629.47;4952724;28;20039;-82
2023/01/29 08:37:24;;;;;;;33.08;16.00;;;;;;;2.56;100.00;101627.44;4954180;28;20043;-80
2023/01/29 08:39:49;;;;;;;26.17;15.87;;;;;;;2.56;100.00;101622.16;4937577;28;20098;-83
2023/01/29 08:42:18;;;;;;;36.88;16.92;;;;;;;2.62;100.00;101622.66;4920528;29;20027;-83
2023/01/29 08:44:44;;;;;;;29.73;15.48;;;;;;;2.58;100.00;101620.28;4950445;28;20042;-82
2023/01/29 08:47:09;;;;;;;30.33;15.73;;;;;;;2.61;100.00;101625.38;4920697;29;20031;-80
2023/01/29 08:49:35;;;;;;;30.73;15.33;;;;;;;2.62;100.00;101616.50;4922026;28;20389;-81
2023/01/29 08:52:00;;;;;;;40.17;16.23;;;;;;;2.63;100.00;101620.88;4919521;29;20039;-80
2023/01/29 08:54:26;;;;;;;31.83;16.93;;;;;;;2.75;100.00;101617.50;4933958;29;20078;-83
2023/01/29 08:56:56;;;;;;;30.10;15.67;;;;;;;2.67;100.00;101617.09;4936154;28;20394;-82
2023/01/29 08:59:21;;;;;;;26.65;14.70;;;;;;;2.61;100.00;101604.28;4949985;28;20117;-84
2023/01/29 09:01:47;;;;;;;32.80;15.63;;;;;;;2.58;100.00;101604.47;4936496;28;20054;-82
2023/01/29 09:04:12;;;;;;;31.85;13.95;;;;;;;2.59;100.00;101591.19;4920117;29;20408;-83
2023/01/29 09:06:37;;;;;;;36.17;14.83;;;;;;;2.67;100.00;101596.88;4942068;28;20098;-84
2023/01/29 09:09:03;;;;;;;38.40;16.20;;;;;;;2.68;100.00;101592.44;4937617;29;20039;-85
2023/01/29 09:11:28;;;;;;;36.88;15.52;;;;;;;2.70;100.00;101598.47;4921659;29;20035;-83
2023/01/29 09:13:54;;;;;;;31.93;15.23;;;;;;;2.76;100.00;101587.53;4937508;28;20019;-84
2023/01/29 09:16:19;;;;;;;28.87;14.77;;;;;;;2.77;100.00;101591.88;4921087;29;20294;-83
2023/01/29 09:18:44;;;;;;;35.33;16.30;;;;;;;2.84;100.00;101587.09;4921776;28;20058;-84
2023/01/29 09:21:10;;;;;;;34.83;17.23;;;;;;;2.84;100.00;101592.38;4937754;29;20106;-83
2023/01/29 09:23:35;;;;;;;38.88;16.75;;;;;;;2.78;100.00;101598.84;4951646;28;20198;-80
2023/01/29 09:26:00;;;;;;;33.17;16.57;;;;;;;2.76;100.00;101590.19;4922662;29;20102;-81
2023/01/29 09:28:26;;;;;;;28.00;14.70;;;;;;;2.74;100.00;101590.28;4940595;29;20455;-83
2023/01/29 09:30:51;;;;;;;32.97;15.93;;;;;;;2.77;100.00;101585.78;4923180;28;20275;-82
2023/01/29 09:33:17;;;;;;;35.33;16.10;;;;;;;2.78;100.00;101580.38;4926245;29;20363;-83
2023/01/29 09:35:44;;;;;;;36.58;17.48;;;;;;;2.85;100.00;101572.97;4923338;28;20028;-83
2023/01/29 09:38:10;;;;;;;32.15;16.08;;;;;;;2.83;100.00;101566.94;4935635;28;20116;-80
2023/01/29 09:40:47;;;;;;;33.70;17.08;;;;;;;2.94;100.00;101553.94;4955252;28;20075;-81
2023/01/29 09:43:24;;;;;;;31.75;15.63;;;;;;;2.86;100.00;101538.59;4934756;29;20051;-84
2023/01/29 09:45:57;;;;;;;35.90;15.07;;;;;;;2.86;100.00;101528.03;4949898;28;20040;-82
2023/01/29 09:48:27;;;;;;;29.58;15.40;;;;;;;2.87;100.00;101529.72;4949331;29;20055;-82
2023/01/29 09:50:57;;;;;;;35.38;16.55;;;;;;;2.84;100.00;101518.53;4944128;28;20062;-83
2023/01/29 09:53:31;;;;;;;40.00;16.83;;;;;;;2.95;100.00;101524.84;4934540;29;20112;-80
2023/01/29 09:56:09;;;;;;;36.50;15.93;;;;;;;3.01;100.00;101517.50;4958895;28;20125;-83
2023/01/29 09:58:38;;;;;;;35.88;17.08;;;;;;;2.94;100.00;101527.56;4942533;28;20031;-79
2023/01/29 10:01:35;;;;;;;36.78;17.25;;;;;;;2.92;100.00;101529.44;4925579;29;20114;-86
2023/01/29 10:04:25;;;;;;;37.17;16.55;;;;;;;2.90;100.00;101521.66;4992189;23;20073;-72
2023/01/29 10:07:03;;;;;;;38.95;18.17;;;;;;;2.96;100.00;101526.53;4996088;28;20069;-72
2023/01/29 10:09:43;;;;;;;42.15;19.45;;;;;;;2.93;100.00;101518.81;5009509;28;20045;-72
2023/01/29 10:12:33;;;;;;;39.15;18.42;;;;;;;2.98;100.00;101522.97;4975653;28;20038;-72
2023/01/29 10:15:31;;;;;;;46.17;21.02;;;;;;;2.95;100.00;101516.94;5006180;28;20112;-72
2023/01/29 10:18:19;;;;;;;46.17;19.23;;;;;;;2.88;100.00;101507.69;4949749;28;20038;-72
2023/01/29 10:20:56;;;;;;;48.33;19.88;;;;;;;2.88;100.00;101512.97;5008731;28;20061;-72
2023/01/29 10:23:30;;;;;;;47.15;22.10;;;;;;;2.93;100.00;101521.44;5009470;28;20041;-72
2023/01/29 10:25:56;;;;;;;46.58;21.83;;;;;;;2.86;100.00;101512.22;5008828;28;20053;-72
2023/01/29 10:28:34;;;;;;;42.30;21.77;;;;;;;2.93;100.00;101516.16;4991558;28;20022;-72
2023/01/29 10:31:12;;;;;;;49.13;23.35;;;;;;;2.94;100.00;101511.75;4991262;28;20113;-72
2023/01/29 10:34:02;;;;;;;47.42;21.70;;;;;;;2.91;100.00;101512.78;4968537;28;20494;-72
2023/01/29 10:36:35;;;;;;;51.63;25.30;;;;;;;2.92;100.00;101497.78;4991066;28;20045;-72
2023/01/29 10:39:01;;;;;;;54.17;21.88;;;;;;;2.91;100.00;101511.94;4991587;28;20076;-73
2023/01/29 10:41:53;;;;;;;48.57;23.00;;;;;;;3.04;100.00;101512.00;4990783;28;20474;-72
2023/01/29 10:44:25;;;;;;;51.05;23.85;;;;;;;2.94;100.00;101498.53;4987456;28;20797;-73
2023/01/29 10:47:22;;;;;;;44.75;21.80;;;;;;;2.99;100.00;101496.47;5006938;28;20503;-72
2023/01/29 10:50:12;;;;;;;52.38;22.63;;;;;;;2.96;100.00;101501.94;4986053;28;20554;-73
2023/01/29 10:52:42;;;;;;;52.58;24.85;;;;;;;2.88;100.00;101491.88;4978029;28;20030;-73
2023/01/29 10:55:21;;;;;;;52.67;24.15;;;;;;;2.90;100.00;101490.00;4989242;28;20049;-72
2023/01/29 10:57:57;;;;;;;36.80;18.17;;;;;;;2.95;100.00;101482.63;5006754;28;20029;-73
2023/01/29 11:00:26;;;;;;;46.85;20.50;;;;;;;2.87;100.00;101482.25;5008170;28;20554;-73
2023/01/29 11:02:51;;;;;;;42.85;19.95;;;;;;;2.98;100.00;101481.59;4990746;28;20088;-73
2023/01/29 11:05:36;;;;;;;41.72;19.88;;;;;;;3.01;100.00;101475.28;5008621;28;20422;-73
2023/01/29 11:08:10;;;;;;;46.13;19.13;;;;;;;2.98;100.00;101460.50;5008373;28;20034;-73
2023/01/29 11:10:43;;;;;;;42.55;19.40;;;;;;;3.02;100.00;101472.56;5008018;28;20857;-73
2023/01/29 11:13:13;;;;;;;43.55;18.83;;;;;;;3.07;100.00;101464.34;5007911;28;20506;-72
2023/01/29 11:15:39;;;;;;;37.78;17.60;;;;;;;3.06;100.00;101467.91;4974038;28;20034;-72
2023/01/29 11:18:12;;;;;;;32.87;16.23;;;;;;;3.06;100.00;101462.63;4990154;28;20149;-73
2023/01/29 11:20:40;;;;;;;35.88;16.70;;;;;;;3.07;100.00;101451.16;4987808;28;20302;-72
2023/01/29 11:23:23;;;;;;;32.75;17.08;;;;;;;3.04;100.00;101438.16;5008236;28;20038;-73
2023/01/29 11:25:52;;;;;;;35.05;15.90;;;;;;;3.11;100.00;101434.16;5007856;28;20501;-72
2023/01/29 11:28:44;;;;;;;32.35;13.55;;;;;;;3.22;100.00;101431.69;5008163;28;20034;-72
2023/01/29 11:31:24;;;;;;;30.90;15.23;;;;;;;3.28;100.00;101419.91;5007681;28;20117;-73
2023/01/29 11:33:53;;;;;;;26.80;12.80;;;;;;;3.27;100.00;101397.94;5007748;28;20052;-73
2023/01/29 11:36:31;;;;;;;28.40;12.85;;;;;;;3.38;100.00;101402.53;4990606;28;20045;-73
2023/01/29 11:39:17;;;;;;;26.75;14.27;;;;;;;3.48;100.00;101390.41;4990409;28;20109;-72
2023/01/29 11:41:45;;;;;;;;;;;;;;;3.51;100.00;101394.63;5007626;28;20109;-72
2023/01/29 11:44:19;;;;;;;29.40;13.50;;;;;;;3.40;100.00;101376.03;4990589;28;19971;-73
2023/01/29 11:46:45;;;;;;;24.15;12.32;;;;;;;3.53;100.00;101382.19;4989678;28;20905;-73
2023/01/29 11:49:22;;;;;;;23.15;11.95;;;;;;;3.62;100.00;101373.66;4974195;28;20026;-72
2023/01/29 11:51:53;;;;;;;25.33;11.45;;;;;;;3.62;100.00;101359.63;4989912;28;20065;-72
2023/01/29 11:54:20;;;;;;;23.00;10.90;;;;;;;3.55;100.00;101348.63;5006198;28;20038;-72
2023/01/29 11:56:46;;;;;;;26.15;11.80;;;;;;;3.59;100.00;101356.22;5007155;28;20479;-72